AirNav   Phillips 66 Aviation Fuel
 
 1355 users online  

6M8 Marked Tree Municipal Airport
Marked Tree, Arkansas, USA


FAA INFORMATION EFFECTIVE 04 JANUARY 2018

Location

FAA Identifier: 6M8
Lat/Long: 35-31-59.1250N / 090-24-00.3200W
35-31.985417N / 090-24.005333W
35.5330903 / -90.4000889
(estimated)
Elevation: 219 ft. / 66.8 m (surveyed)
Variation: 02E (1985)
From city: 1 mile E of MARKED TREE, AR
Time zone: UTC -6 (UTC -5 during Daylight Saving Time)
Zip code: 72365

Airport Operations

Airport use: Open to the public
Activation date: 03/1970
Control tower: no
ARTCC: MEMPHIS CENTER
FSS: JONESBORO FLIGHT SERVICE STATION
NOTAMs facility: JBR (NOTAM-D service available)
Attendance: IREG
Wind indicator: lighted
Segmented circle: yes
Lights: ACTVT MIRL RY 18/36 - CTAF.
Beacon: white-green (lighted land airport)
Operates sunset to sunrise.

Airport Communications

CTAF/UNICOM: 122.8

Nearby radio navigation aids

VOR radial/distance  VOR name  Freq  Var
GQEr015/11.8GILMORE VOR/DME113.0004E
JBRr156/22.5JONESBORO VOR/DME108.6000W
MEMr326/37.2MEMPHIS VORTAC117.5001E

Airport Services

Parking: tiedowns
Airframe service: NONE
Powerplant service: NONE

Runway Information

Runway 18/36

Dimensions: 3200 x 60 ft. / 975 x 18 m
Surface: asphalt, in fair condition
Weight bearing capacity: 
Single wheel: 8.0
Runway edge lights: medium intensity
RUNWAY 18  RUNWAY 36
Latitude: 35-32.249167N35-31.721667N
Longitude: 090-24.004500W090-24.006167W
Elevation: 219.0 ft.219.0 ft.
Gradient: 0.1%0.1%
Traffic pattern: leftleft
Markings: nonprecision, in good conditionnonprecision, in good condition
Visual slope indicator: 2-light PAPI on left (3.00 degrees glide path)2-light PAPI on left (3.00 degrees glide path)
Touchdown point: yes, no lightsyes, no lights
Obstructions: none15 ft. road, 500 ft. from runway, 20:1 slope to clear

Airport Ownership and Management from official FAA records

Ownership: Publicly-owned
Owner: CITY OF MARKED TREE
1 ELM STREET
MARKED TREE, AR 72365
Phone 870-358-3216
Manager: WAYNE HENDRIX
1 ELM STREET
MARKED TREE, AR 72365
Phone (870) 375-3025

Airport Operational Statistics

Aircraft based on the field: 1
Single engine airplanes: 1
    
Aircraft operations: avg 65/day *
84% local general aviation
15% transient general aviation
<1% military
<1% air taxi
* for 12-month period ending 31 August 2016

Additional Remarks

NUMEROUS AGRICULTURAL ACFT OPNS FM FEB-NOV 500 FT AGL AND BELOW.
FOR CD CTC MEM APCH AT 901-842-8457.

Instrument Procedures

There are no published instrument procedures at 6M8.

Some nearby airports with instrument procedures:

7M4 - Osceola Municipal Airport (21 nm NE)
KJBR - Jonesboro Municipal Airport (22 nm NW)
KMXA - Manila Municipal Airport (25 nm NE)
KAWM - West Memphis Municipal Airport (25 nm S)
M01 - General Dewitt Spain Airport (26 nm SE)
 
Loc | Ops | Rwys | IFR | FBO | Links
Com | Nav | Svcs | Stats | Notes

Fly Arkansas
AirBoss

 
Area around 6M8 (Marked Tree Municipal Airport)
 
Road maps at: MapQuest Bing Google
 
Aerial photo
WARNING: Photo may not be current or correct
Aerial photo of 6M8 (Marked Tree Municipal Airport)
Photo courtesy of the Arkansas Department of Aeronautics
Taken in the Spring of 2007

Do you have a better or more recent aerial photo of Marked Tree Municipal Airport that you would like to share? If so, please send us your photo.

 
Sectional chart

 
Airport distance calculator
Flying to Marked Tree Municipal Airport? Find the distance to fly.

From to 6M8

Sunrise and sunset
Times for 23-Jan-2018
 Local
(UTC-6)
 Zulu
(UTC)
Morning civil twilight06:4112:41
Sunrise07:0813:08
Sunset17:1923:19
Evening civil twilight17:4623:46

Current date and time
Zulu (UTC)  23-Jan-2018 14:55:59
Local (UTC-6)  23-Jan-2018 08:55:59
 
METAR
KJBR 
22nm NW 
231053Z AUTO 27012G21KT 10SM OVC042 05/M02 A2995 RMK AO2 SLP142 T00501017 $
KAWM 
25nm S 
231053Z AUTO VRB06KT 10SM CLR 05/00 A2996 RMK AO2 SLP145 T00500000 TSNO $
KNQA 
28nm SE 
231055Z AUTO 28011KT 10SM OVC050 06/M02 A2994 RMK A01
KMEM 
35nm SE 
231054Z 31013KT 10SM SCT050 06/M01 A2995 RMK AO2 SLP143 T00611006 $
KHKA 
37nm NE 
231053Z AUTO 28010KT 10SM BKN044 04/03 A2994 RMK AO2 SLP139 T00390028 $
KBYH 
37nm NE 
222250Z 23016G28KT 10SM SKC 12/04 A2972 RMK LAST
KM19 
38nm W 
231056Z AUTO 31013KT 10SM CLR 04/M03 A2998 RMK AO2 SLP158 T00391028
KM04 
40nm E 
231055Z AUTO 30009KT 10SM SCT055 05/M01 A2995 RMK A01
KARG 
43nm NW 
231056Z AUTO 28011G21KT 10SM OVC037 04/M03 A2995 RMK AO2 SLP146 T00391028
TAF
KJBR 
22nm NW 
230520Z 2306/2406 24012G22KT P6SM BKN050 FM230700 28012G18KT P6SM BKN035 FM231300 30013G20KT P6SM BKN025 FM240000 29004KT P6SM SKC
NOTAMs
Click for the latest NOTAMs
NOTAMs are issued by the DoD/FAA and will open in a separate window not controlled by AirNav.

 

 
 

Would you like to see your business listed on this page?

 If your business provides an interesting product or service to pilots, flight crews, aircraft, or users of the Marked Tree Municipal Airport, you should consider listing it here.  To start the listing process, click on the button below
 
Add a business
 

Other Pages about Marked Tree Municipal Airport

Update a link
 
Copyright © AirNav, LLC. All rights reserved. Privacy Policy  Contact